sensor_id;sensor_type;location;lat;lon;timestamp;temperature;humidity
5621;DHT22;2832;50.864;12.186;2024-03-08T00:01:11;10.20;96.20
5621;DHT22;2832;50.864;12.186;2024-03-08T00:03:39;10.20;96.20
5621;DHT22;2832;50.864;12.186;2024-03-08T00:06:09;10.20;96.20
5621;DHT22;2832;50.864;12.186;2024-03-08T00:08:40;10.20;96.20
5621;DHT22;2832;50.864;12.186;2024-03-08T00:11:11;10.20;96.20
5621;DHT22;2832;50.864;12.186;2024-03-08T00:13:38;10.10;96.20
5621;DHT22;2832;50.864;12.186;2024-03-08T00:16:06;10.20;96.20
5621;DHT22;2832;50.864;12.186;2024-03-08T00:18:36;10.20;96.20
5621;DHT22;2832;50.864;12.186;2024-03-08T00:21:04;10.20;96.20
5621;DHT22;2832;50.864;12.186;2024-03-08T00:23:35;10.20;96.20
5621;DHT22;2832;50.864;12.186;2024-03-08T00:26:03;10.10;96.20
5621;DHT22;2832;50.864;12.186;2024-03-08T00:28:32;10.10;96.20
5621;DHT22;2832;50.864;12.186;2024-03-08T00:31:03;10.10;96.20
5621;DHT22;2832;50.864;12.186;2024-03-08T00:33:32;10.10;96.20
5621;DHT22;2832;50.864;12.186;2024-03-08T00:36:02;10.10;96.20
5621;DHT22;2832;50.864;12.186;2024-03-08T00:38:30;10.10;96.10
5621;DHT22;2832;50.864;12.186;2024-03-08T00:41:01;10.10;96.10
5621;DHT22;2832;50.864;12.186;2024-03-08T00:43:29;10.10;96.10
5621;DHT22;2832;50.864;12.186;2024-03-08T00:45:57;10.10;96.10
5621;DHT22;2832;50.864;12.186;2024-03-08T00:48:26;10.10;96.10
5621;DHT22;2832;50.864;12.186;2024-03-08T00:50:54;10.10;96.10
5621;DHT22;2832;50.864;12.186;2024-03-08T00:53:22;10.10;96.10
5621;DHT22;2832;50.864;12.186;2024-03-08T00:55:51;10.10;96.10
5621;DHT22;2832;50.864;12.186;2024-03-08T00:58:21;10.10;96.10
5621;DHT22;2832;50.864;12.186;2024-03-08T01:00:50;10.10;96.10
5621;DHT22;2832;50.864;12.186;2024-03-08T01:03:18;10.00;96.10
5621;DHT22;2832;50.864;12.186;2024-03-08T01:05:48;10.10;96.10
5621;DHT22;2832;50.864;12.186;2024-03-08T01:08:17;10.10;96.10
5621;DHT22;2832;50.864;12.186;2024-03-08T01:10:45;10.00;96.10
5621;DHT22;2832;50.864;12.186;2024-03-08T01:13:13;10.00;96.00
5621;DHT22;2832;50.864;12.186;2024-03-08T01:15:43;10.00;96.10
5621;DHT22;2832;50.864;12.186;2024-03-08T01:18:11;10.00;96.10
5621;DHT22;2832;50.864;12.186;2024-03-08T01:20:39;10.00;96.10
5621;DHT22;2832;50.864;12.186;2024-03-08T01:23:08;10.00;96.00
5621;DHT22;2832;50.864;12.186;2024-03-08T01:25:35;10.00;96.10
5621;DHT22;2832;50.864;12.186;2024-03-08T01:28:03;10.00;96.10
5621;DHT22;2832;50.864;12.186;2024-03-08T01:30:32;10.00;96.10
5621;DHT22;2832;50.864;12.186;2024-03-08T01:33:02;10.00;96.00
5621;DHT22;2832;50.864;12.186;2024-03-08T01:35:33;10.00;96.00
5621;DHT22;2832;50.864;12.186;2024-03-08T01:38:00;10.00;95.90
5621;DHT22;2832;50.864;12.186;2024-03-08T01:40:31;10.00;96.00
5621;DHT22;2832;50.864;12.186;2024-03-08T01:43:19;10.00;96.00
5621;DHT22;2832;50.864;12.186;2024-03-08T01:45:48;10.00;95.90
5621;DHT22;2832;50.864;12.186;2024-03-08T01:48:18;10.00;95.90
5621;DHT22;2832;50.864;12.186;2024-03-08T01:50:48;10.00;95.90
5621;DHT22;2832;50.864;12.186;2024-03-08T01:53:18;9.90;96.30
5621;DHT22;2832;50.864;12.186;2024-03-08T01:55:48;9.90;96.30
5621;DHT22;2832;50.864;12.186;2024-03-08T01:58:16;9.90;96.30
5621;DHT22;2832;50.864;12.186;2024-03-08T02:00:48;9.90;96.30
5621;DHT22;2832;50.864;12.186;2024-03-08T02:03:17;10.00;95.70
5621;DHT22;2832;50.864;12.186;2024-03-08T02:05:45;9.90;96.20
5621;DHT22;2832;50.864;12.186;2024-03-08T02:08:13;9.90;96.20
5621;DHT22;2832;50.864;12.186;2024-03-08T02:10:43;9.90;96.10
5621;DHT22;2832;50.864;12.186;2024-03-08T02:13:11;9.90;96.10
5621;DHT22;2832;50.864;12.186;2024-03-08T02:16:00;9.90;96.20
5621;DHT22;2832;50.864;12.186;2024-03-08T02:18:29;9.80;96.20
5621;DHT22;2832;50.864;12.186;2024-03-08T02:21:03;9.80;96.20
5621;DHT22;2832;50.864;12.186;2024-03-08T02:23:32;9.80;96.10
5621;DHT22;2832;50.864;12.186;2024-03-08T02:26:00;9.80;96.10
5621;DHT22;2832;50.864;12.186;2024-03-08T02:28:28;9.80;96.10
5621;DHT22;2832;50.864;12.186;2024-03-08T02:30:57;9.80;96.00
5621;DHT22;2832;50.864;12.186;2024-03-08T02:33:26;9.90;96.10
5621;DHT22;2832;50.864;12.186;2024-03-08T02:35:54;9.80;96.00
5621;DHT22;2832;50.864;12.186;2024-03-08T02:38:25;9.90;96.00
5621;DHT22;2832;50.864;12.186;2024-03-08T02:40:53;9.90;96.00
5621;DHT22;2832;50.864;12.186;2024-03-08T02:43:22;9.90;96.00
5621;DHT22;2832;50.864;12.186;2024-03-08T02:45:50;9.80;95.90
5621;DHT22;2832;50.864;12.186;2024-03-08T02:48:20;9.80;95.90
5621;DHT22;2832;50.864;12.186;2024-03-08T02:50:49;9.80;95.90
5621;DHT22;2832;50.864;12.186;2024-03-08T02:53:17;9.80;95.90
5621;DHT22;2832;50.864;12.186;2024-03-08T02:55:47;9.80;95.90
5621;DHT22;2832;50.864;12.186;2024-03-08T02:58:15;9.80;95.90
5621;DHT22;2832;50.864;12.186;2024-03-08T03:00:44;9.80;95.90
5621;DHT22;2832;50.864;12.186;2024-03-08T03:03:13;9.70;95.90
5621;DHT22;2832;50.864;12.186;2024-03-08T03:05:42;9.80;95.90
5621;DHT22;2832;50.864;12.186;2024-03-08T03:08:10;9.70;95.90
5621;DHT22;2832;50.864;12.186;2024-03-08T03:10:39;9.70;95.90
5621;DHT22;2832;50.864;12.186;2024-03-08T03:13:08;9.70;95.80
5621;DHT22;2832;50.864;12.186;2024-03-08T03:15:36;9.70;95.90
5621;DHT22;2832;50.864;12.186;2024-03-08T03:18:04;9.70;95.80
5621;DHT22;2832;50.864;12.186;2024-03-08T03:20:34;9.70;95.90
5621;DHT22;2832;50.864;12.186;2024-03-08T03:23:06;9.60;95.90
5621;DHT22;2832;50.864;12.186;2024-03-08T03:25:35;9.60;95.90
5621;DHT22;2832;50.864;12.186;2024-03-08T03:28:05;9.60;95.90
5621;DHT22;2832;50.864;12.186;2024-03-08T03:30:35;9.60;95.90
5621;DHT22;2832;50.864;12.186;2024-03-08T03:33:03;9.60;95.90
5621;DHT22;2832;50.864;12.186;2024-03-08T03:35:34;9.50;95.90
5621;DHT22;2832;50.864;12.186;2024-03-08T03:38:02;9.50;95.90
5621;DHT22;2832;50.864;12.186;2024-03-08T03:40:33;9.50;95.90
5621;DHT22;2832;50.864;12.186;2024-03-08T03:43:01;9.50;95.90
5621;DHT22;2832;50.864;12.186;2024-03-08T03:45:30;9.50;95.90
5621;DHT22;2832;50.864;12.186;2024-03-08T03:48:05;9.50;95.90
5621;DHT22;2832;50.864;12.186;2024-03-08T03:50:35;9.50;95.90
5621;DHT22;2832;50.864;12.186;2024-03-08T03:53:04;9.50;95.80
5621;DHT22;2832;50.864;12.186;2024-03-08T03:55:34;9.50;95.80
5621;DHT22;2832;50.864;12.186;2024-03-08T03:58:03;9.50;95.80
5621;DHT22;2832;50.864;12.186;2024-03-08T04:00:34;9.50;95.80
5621;DHT22;2832;50.864;12.186;2024-03-08T04:03:04;9.50;95.80
5621;DHT22;2832;50.864;12.186;2024-03-08T04:05:32;9.50;95.80
5621;DHT22;2832;50.864;12.186;2024-03-08T04:08:00;9.50;95.80
5621;DHT22;2832;50.864;12.186;2024-03-08T04:10:29;9.50;95.80
5621;DHT22;2832;50.864;12.186;2024-03-08T04:12:56;9.50;95.80
5621;DHT22;2832;50.864;12.186;2024-03-08T04:15:24;9.40;95.80
5621;DHT22;2832;50.864;12.186;2024-03-08T04:17:52;9.40;95.80
5621;DHT22;2832;50.864;12.186;2024-03-08T04:20:21;9.40;95.70
5621;DHT22;2832;50.864;12.186;2024-03-08T04:22:52;9.40;95.70
5621;DHT22;2832;50.864;12.186;2024-03-08T04:25:20;9.40;95.70
5621;DHT22;2832;50.864;12.186;2024-03-08T04:27:50;9.40;95.70
5621;DHT22;2832;50.864;12.186;2024-03-08T04:30:19;9.40;95.70
5621;DHT22;2832;50.864;12.186;2024-03-08T04:32:47;9.40;95.70
5621;DHT22;2832;50.864;12.186;2024-03-08T04:35:15;9.40;95.70
5621;DHT22;2832;50.864;12.186;2024-03-08T04:37:44;9.40;95.70
5621;DHT22;2832;50.864;12.186;2024-03-08T04:40:12;9.40;95.70
5621;DHT22;2832;50.864;12.186;2024-03-08T04:42:40;9.40;95.70
5621;DHT22;2832;50.864;12.186;2024-03-08T04:45:10;9.30;95.60
5621;DHT22;2832;50.864;12.186;2024-03-08T04:47:38;9.30;95.70
5621;DHT22;2832;50.864;12.186;2024-03-08T04:50:07;9.30;95.70
5621;DHT22;2832;50.864;12.186;2024-03-08T04:52:36;9.30;95.70
5621;DHT22;2832;50.864;12.186;2024-03-08T04:55:06;9.30;95.70
5621;DHT22;2832;50.864;12.186;2024-03-08T04:57:34;9.30;95.70
5621;DHT22;2832;50.864;12.186;2024-03-08T05:00:06;9.30;95.70
5621;DHT22;2832;50.864;12.186;2024-03-08T05:02:37;9.20;95.60
5621;DHT22;2832;50.864;12.186;2024-03-08T05:05:09;9.20;95.60
5621;DHT22;2832;50.864;12.186;2024-03-08T05:07:38;9.20;95.60
5621;DHT22;2832;50.864;12.186;2024-03-08T05:10:10;9.20;95.60
5621;DHT22;2832;50.864;12.186;2024-03-08T05:12:39;9.20;95.60
5621;DHT22;2832;50.864;12.186;2024-03-08T05:15:11;9.20;95.90
5621;DHT22;2832;50.864;12.186;2024-03-08T05:17:45;9.20;95.60
5621;DHT22;2832;50.864;12.186;2024-03-08T05:20:13;9.20;95.60
5621;DHT22;2832;50.864;12.186;2024-03-08T05:22:42;9.20;95.50
5621;DHT22;2832;50.864;12.186;2024-03-08T05:25:16;9.20;95.50
5621;DHT22;2832;50.864;12.186;2024-03-08T05:27:52;9.10;95.50
5621;DHT22;2832;50.864;12.186;2024-03-08T05:30:20;9.10;95.50
5621;DHT22;2832;50.864;12.186;2024-03-08T05:32:48;9.10;95.50
5621;DHT22;2832;50.864;12.186;2024-03-08T05:35:16;9.10;95.50
5621;DHT22;2832;50.864;12.186;2024-03-08T05:37:44;9.10;95.50
5621;DHT22;2832;50.864;12.186;2024-03-08T05:40:13;9.10;95.50
5621;DHT22;2832;50.864;12.186;2024-03-08T05:42:41;9.00;95.50
5621;DHT22;2832;50.864;12.186;2024-03-08T05:45:09;9.00;95.50
5621;DHT22;2832;50.864;12.186;2024-03-08T05:47:39;9.00;95.50
5621;DHT22;2832;50.864;12.186;2024-03-08T05:50:08;9.10;95.50
5621;DHT22;2832;50.864;12.186;2024-03-08T05:52:39;9.10;95.50
5621;DHT22;2832;50.864;12.186;2024-03-08T05:55:19;9.10;95.50
5621;DHT22;2832;50.864;12.186;2024-03-08T05:57:54;9.00;95.40
5621;DHT22;2832;50.864;12.186;2024-03-08T06:00:23;9.00;95.40
5621;DHT22;2832;50.864;12.186;2024-03-08T06:02:54;9.00;95.50
5621;DHT22;2832;50.864;12.186;2024-03-08T06:05:22;9.00;95.50
5621;DHT22;2832;50.864;12.186;2024-03-08T06:07:51;9.00;95.50
5621;DHT22;2832;50.864;12.186;2024-03-08T06:10:21;9.00;95.40
5621;DHT22;2832;50.864;12.186;2024-03-08T06:12:49;9.00;95.40
5621;DHT22;2832;50.864;12.186;2024-03-08T06:15:19;9.00;95.40
5621;DHT22;2832;50.864;12.186;2024-03-08T06:17:48;9.00;95.40
5621;DHT22;2832;50.864;12.186;2024-03-08T06:20:18;9.00;95.40
5621;DHT22;2832;50.864;12.186;2024-03-08T06:22:48;8.90;95.40
5621;DHT22;2832;50.864;12.186;2024-03-08T06:25:21;8.90;95.40
5621;DHT22;2832;50.864;12.186;2024-03-08T06:27:52;8.90;95.40
5621;DHT22;2832;50.864;12.186;2024-03-08T06:30:20;8.90;95.50
5621;DHT22;2832;50.864;12.186;2024-03-08T06:32:49;8.90;95.60
5621;DHT22;2832;50.864;12.186;2024-03-08T06:35:18;8.90;95.60
5621;DHT22;2832;50.864;12.186;2024-03-08T06:37:47;8.90;95.60
5621;DHT22;2832;50.864;12.186;2024-03-08T06:40:16;8.90;95.60
5621;DHT22;2832;50.864;12.186;2024-03-08T06:42:49;8.90;95.70
5621;DHT22;2832;50.864;12.186;2024-03-08T06:45:19;8.90;95.70
5621;DHT22;2832;50.864;12.186;2024-03-08T06:47:48;8.90;95.70
5621;DHT22;2832;50.864;12.186;2024-03-08T06:50:16;8.90;95.70
5621;DHT22;2832;50.864;12.186;2024-03-08T06:52:44;8.90;95.80
5621;DHT22;2832;50.864;12.186;2024-03-08T06:55:17;8.90;95.80
5621;DHT22;2832;50.864;12.186;2024-03-08T06:58:01;8.90;95.80
5621;DHT22;2832;50.864;12.186;2024-03-08T07:00:31;8.90;95.80
5621;DHT22;2832;50.864;12.186;2024-03-08T07:03:02;8.90;95.90
5621;DHT22;2832;50.864;12.186;2024-03-08T07:05:33;8.90;95.90
5621;DHT22;2832;50.864;12.186;2024-03-08T07:08:01;8.90;95.90
5621;DHT22;2832;50.864;12.186;2024-03-08T07:10:29;8.90;95.90
5621;DHT22;2832;50.864;12.186;2024-03-08T07:12:58;8.80;95.90
5621;DHT22;2832;50.864;12.186;2024-03-08T07:15:30;8.80;96.00
5621;DHT22;2832;50.864;12.186;2024-03-08T07:18:05;8.80;96.00
5621;DHT22;2832;50.864;12.186;2024-03-08T07:20:36;8.80;96.00
5621;DHT22;2832;50.864;12.186;2024-03-08T07:23:05;8.80;96.10
5621;DHT22;2832;50.864;12.186;2024-03-08T07:25:33;8.80;96.10
5621;DHT22;2832;50.864;12.186;2024-03-08T07:28:01;8.80;96.10
5621;DHT22;2832;50.864;12.186;2024-03-08T07:30:37;8.80;96.10
5621;DHT22;2832;50.864;12.186;2024-03-08T07:33:29;8.80;96.20
5621;DHT22;2832;50.864;12.186;2024-03-08T07:35:57;8.90;96.20
5621;DHT22;2832;50.864;12.186;2024-03-08T07:38:26;8.80;96.20
5621;DHT22;2832;50.864;12.186;2024-03-08T07:40:56;8.80;96.20
5621;DHT22;2832;50.864;12.186;2024-03-08T07:43:25;8.80;96.20
5621;DHT22;2832;50.864;12.186;2024-03-08T07:45:54;8.80;96.30
5621;DHT22;2832;50.864;12.186;2024-03-08T07:48:23;8.80;96.30
5621;DHT22;2832;50.864;12.186;2024-03-08T07:50:53;8.80;96.30
5621;DHT22;2832;50.864;12.186;2024-03-08T07:53:20;8.80;96.70
5621;DHT22;2832;50.864;12.186;2024-03-08T07:55:52;8.80;96.40
5621;DHT22;2832;50.864;12.186;2024-03-08T07:58:22;8.80;96.50
5621;DHT22;2832;50.864;12.186;2024-03-08T08:00:50;8.80;96.50
5621;DHT22;2832;50.864;12.186;2024-03-08T08:03:23;8.80;96.60
5621;DHT22;2832;50.864;12.186;2024-03-08T08:05:53;8.80;96.60
5621;DHT22;2832;50.864;12.186;2024-03-08T08:08:21;8.70;96.60
5621;DHT22;2832;50.864;12.186;2024-03-08T08:10:49;8.70;96.70
5621;DHT22;2832;50.864;12.186;2024-03-08T08:13:19;8.70;96.80
5621;DHT22;2832;50.864;12.186;2024-03-08T08:15:50;8.70;96.80
5621;DHT22;2832;50.864;12.186;2024-03-08T08:18:18;8.70;96.90
5621;DHT22;2832;50.864;12.186;2024-03-08T08:20:55;8.70;96.90
5621;DHT22;2832;50.864;12.186;2024-03-08T08:23:23;8.70;97.00
5621;DHT22;2832;50.864;12.186;2024-03-08T08:25:52;8.70;97.00
5621;DHT22;2832;50.864;12.186;2024-03-08T08:28:22;8.70;97.10
5621;DHT22;2832;50.864;12.186;2024-03-08T08:30:50;8.70;97.10
5621;DHT22;2832;50.864;12.186;2024-03-08T08:33:19;8.70;97.20
5621;DHT22;2832;50.864;12.186;2024-03-08T08:35:47;8.70;97.20
5621;DHT22;2832;50.864;12.186;2024-03-08T08:38:21;8.70;97.20
5621;DHT22;2832;50.864;12.186;2024-03-08T08:40:50;8.70;97.30
5621;DHT22;2832;50.864;12.186;2024-03-08T08:43:19;8.70;97.30
5621;DHT22;2832;50.864;12.186;2024-03-08T08:45:51;8.70;97.40
5621;DHT22;2832;50.864;12.186;2024-03-08T08:48:29;8.70;97.40
5621;DHT22;2832;50.864;12.186;2024-03-08T08:51:10;8.70;97.50
5621;DHT22;2832;50.864;12.186;2024-03-08T08:53:43;8.70;97.50
5621;DHT22;2832;50.864;12.186;2024-03-08T08:56:14;8.70;97.60
5621;DHT22;2832;50.864;12.186;2024-03-08T08:58:42;8.70;97.60
5621;DHT22;2832;50.864;12.186;2024-03-08T09:01:12;8.70;97.70
5621;DHT22;2832;50.864;12.186;2024-03-08T09:03:44;8.70;97.70
5621;DHT22;2832;50.864;12.186;2024-03-08T09:06:14;8.70;97.70
5621;DHT22;2832;50.864;12.186;2024-03-08T09:08:54;8.70;97.80
5621;DHT22;2832;50.864;12.186;2024-03-08T09:11:23;8.60;97.80
5621;DHT22;2832;50.864;12.186;2024-03-08T09:13:56;8.50;97.60
5621;DHT22;2832;50.864;12.186;2024-03-08T09:16:28;8.40;97.80
5621;DHT22;2832;50.864;12.186;2024-03-08T09:19:03;8.40;97.80
5621;DHT22;2832;50.864;12.186;2024-03-08T09:21:34;8.40;98.00
5621;DHT22;2832;50.864;12.186;2024-03-08T09:24:05;8.40;97.80
5621;DHT22;2832;50.864;12.186;2024-03-08T09:26:36;8.30;97.70
5621;DHT22;2832;50.864;12.186;2024-03-08T09:29:04;8.20;97.90
5621;DHT22;2832;50.864;12.186;2024-03-08T09:31:33;8.10;98.10
5621;DHT22;2832;50.864;12.186;2024-03-08T09:34:03;8.10;98.10
5621;DHT22;2832;50.864;12.186;2024-03-08T09:36:32;8.10;98.10
5621;DHT22;2832;50.864;12.186;2024-03-08T09:39:00;8.10;98.30
5621;DHT22;2832;50.864;12.186;2024-03-08T09:41:32;8.10;98.10
5621;DHT22;2832;50.864;12.186;2024-03-08T09:44:00;8.20;98.30
5621;DHT22;2832;50.864;12.186;2024-03-08T09:46:36;8.20;98.00
5621;DHT22;2832;50.864;12.186;2024-03-08T09:49:11;8.20;98.10
5621;DHT22;2832;50.864;12.186;2024-03-08T09:51:45;8.20;98.10
5621;DHT22;2832;50.864;12.186;2024-03-08T09:54:13;8.30;98.10
5621;DHT22;2832;50.864;12.186;2024-03-08T09:56:46;8.20;98.00
5621;DHT22;2832;50.864;12.186;2024-03-08T09:59:15;8.10;98.00
5621;DHT22;2832;50.864;12.186;2024-03-08T10:02:18;8.10;98.20
5621;DHT22;2832;50.864;12.186;2024-03-08T10:04:47;8.20;98.20
5621;DHT22;2832;50.864;12.186;2024-03-08T10:07:15;8.10;98.20
5621;DHT22;2832;50.864;12.186;2024-03-08T10:09:43;8.20;98.40
5621;DHT22;2832;50.864;12.186;2024-03-08T10:12:19;8.20;98.30
5621;DHT22;2832;50.864;12.186;2024-03-08T10:14:52;8.20;98.40
5621;DHT22;2832;50.864;12.186;2024-03-08T10:17:24;8.30;98.40
5621;DHT22;2832;50.864;12.186;2024-03-08T10:19:53;8.30;98.40
5621;DHT22;2832;50.864;12.186;2024-03-08T10:22:23;8.30;98.40
5621;DHT22;2832;50.864;12.186;2024-03-08T10:24:52;8.30;98.40
5621;DHT22;2832;50.864;12.186;2024-03-08T10:27:23;8.40;98.50
5621;DHT22;2832;50.864;12.186;2024-03-08T10:29:54;8.50;98.50
5621;DHT22;2832;50.864;12.186;2024-03-08T10:32:23;8.50;98.50
5621;DHT22;2832;50.864;12.186;2024-03-08T10:34:52;8.60;98.50
5621;DHT22;2832;50.864;12.186;2024-03-08T10:37:26;8.60;98.50
5621;DHT22;2832;50.864;12.186;2024-03-08T10:40:02;8.50;98.50
5621;DHT22;2832;50.864;12.186;2024-03-08T10:42:52;8.50;98.30
5621;DHT22;2832;50.864;12.186;2024-03-08T10:45:30;8.50;98.30
5621;DHT22;2832;50.864;12.186;2024-03-08T10:48:15;8.50;98.40
5621;DHT22;2832;50.864;12.186;2024-03-08T10:50:44;8.50;98.30
5621;DHT22;2832;50.864;12.186;2024-03-08T10:53:15;8.50;98.30
5621;DHT22;2832;50.864;12.186;2024-03-08T10:55:50;8.50;98.30
5621;DHT22;2832;50.864;12.186;2024-03-08T10:58:27;8.50;98.40
5621;DHT22;2832;50.864;12.186;2024-03-08T11:00:57;8.50;98.50
5621;DHT22;2832;50.864;12.186;2024-03-08T11:03:46;8.60;98.40
5621;DHT22;2832;50.864;12.186;2024-03-08T11:06:21;8.60;98.40
5621;DHT22;2832;50.864;12.186;2024-03-08T11:08:53;8.60;98.50
5621;DHT22;2832;50.864;12.186;2024-03-08T11:11:26;8.60;98.50
5621;DHT22;2832;50.864;12.186;2024-03-08T11:13:59;8.60;98.40
5621;DHT22;2832;50.864;12.186;2024-03-08T11:16:48;8.60;98.40
5621;DHT22;2832;50.864;12.186;2024-03-08T11:19:27;8.60;98.50
5621;DHT22;2832;50.864;12.186;2024-03-08T11:22:06;8.60;98.30
5621;DHT22;2832;50.864;12.186;2024-03-08T11:24:45;8.60;98.20
5621;DHT22;2832;50.864;12.186;2024-03-08T11:27:29;8.60;98.30
5621;DHT22;2832;50.864;12.186;2024-03-08T11:30:04;8.60;98.40
5621;DHT22;2832;50.864;12.186;2024-03-08T11:32:43;8.70;98.40
5621;DHT22;2832;50.864;12.186;2024-03-08T11:35:19;8.80;98.40
5621;DHT22;2832;50.864;12.186;2024-03-08T11:37:47;8.80;98.40
5621;DHT22;2832;50.864;12.186;2024-03-08T11:40:16;8.90;98.40
5621;DHT22;2832;50.864;12.186;2024-03-08T11:42:48;8.90;98.10
5621;DHT22;2832;50.864;12.186;2024-03-08T11:45:20;8.90;98.20
5621;DHT22;2832;50.864;12.186;2024-03-08T11:47:52;9.00;98.20
5621;DHT22;2832;50.864;12.186;2024-03-08T11:50:25;8.90;98.10
5621;DHT22;2832;50.864;12.186;2024-03-08T11:53:01;9.00;98.20
5621;DHT22;2832;50.864;12.186;2024-03-08T11:55:30;9.00;97.90
5621;DHT22;2832;50.864;12.186;2024-03-08T11:58:03;9.00;97.80
5621;DHT22;2832;50.864;12.186;2024-03-08T12:00:36;9.00;98.20
5621;DHT22;2832;50.864;12.186;2024-03-08T12:03:06;9.10;98.40
5621;DHT22;2832;50.864;12.186;2024-03-08T12:05:34;9.10;97.90
5621;DHT22;2832;50.864;12.186;2024-03-08T12:08:03;9.10;97.80
5621;DHT22;2832;50.864;12.186;2024-03-08T12:10:33;9.10;97.60
5621;DHT22;2832;50.864;12.186;2024-03-08T12:13:02;9.10;97.70
5621;DHT22;2832;50.864;12.186;2024-03-08T12:15:35;9.10;97.70
5621;DHT22;2832;50.864;12.186;2024-03-08T12:18:07;9.10;97.80
5621;DHT22;2832;50.864;12.186;2024-03-08T12:20:39;9.20;98.10
5621;DHT22;2832;50.864;12.186;2024-03-08T12:23:16;9.20;97.90
5621;DHT22;2832;50.864;12.186;2024-03-08T12:25:52;9.20;97.80
5621;DHT22;2832;50.864;12.186;2024-03-08T12:28:31;9.30;97.70
5621;DHT22;2832;50.864;12.186;2024-03-08T12:31:06;9.30;97.60
5621;DHT22;2832;50.864;12.186;2024-03-08T12:33:48;9.30;97.50
5621;DHT22;2832;50.864;12.186;2024-03-08T12:36:22;9.30;97.40
5621;DHT22;2832;50.864;12.186;2024-03-08T12:38:55;9.30;97.60
5621;DHT22;2832;50.864;12.186;2024-03-08T12:41:26;9.30;97.40
5621;DHT22;2832;50.864;12.186;2024-03-08T12:43:55;9.40;97.40
5621;DHT22;2832;50.864;12.186;2024-03-08T12:46:27;9.30;97.20
5621;DHT22;2832;50.864;12.186;2024-03-08T12:48:57;9.40;97.40
5621;DHT22;2832;50.864;12.186;2024-03-08T12:51:26;9.40;97.50
5621;DHT22;2832;50.864;12.186;2024-03-08T12:54:00;9.40;97.50
5621;DHT22;2832;50.864;12.186;2024-03-08T12:56:35;9.40;97.50
5621;DHT22;2832;50.864;12.186;2024-03-08T12:59:06;9.50;97.50
5621;DHT22;2832;50.864;12.186;2024-03-08T13:01:37;9.50;97.50
5621;DHT22;2832;50.864;12.186;2024-03-08T13:04:06;9.50;97.40
5621;DHT22;2832;50.864;12.186;2024-03-08T13:06:42;9.50;97.30
5621;DHT22;2832;50.864;12.186;2024-03-08T13:09:21;9.50;97.20
5621;DHT22;2832;50.864;12.186;2024-03-08T13:11:56;9.60;97.20
5621;DHT22;2832;50.864;12.186;2024-03-08T13:14:32;9.60;97.10
5621;DHT22;2832;50.864;12.186;2024-03-08T13:17:05;9.60;97.10
5621;DHT22;2832;50.864;12.186;2024-03-08T13:19:38;9.70;97.40
5621;DHT22;2832;50.864;12.186;2024-03-08T13:22:13;9.70;97.30
5621;DHT22;2832;50.864;12.186;2024-03-08T13:24:47;9.80;97.00
5621;DHT22;2832;50.864;12.186;2024-03-08T13:27:17;9.80;97.10
5621;DHT22;2832;50.864;12.186;2024-03-08T13:29:48;9.80;97.00
5621;DHT22;2832;50.864;12.186;2024-03-08T13:32:17;9.80;96.80
5621;DHT22;2832;50.864;12.186;2024-03-08T13:34:48;9.80;96.90
5621;DHT22;2832;50.864;12.186;2024-03-08T13:37:24;9.90;96.60
5621;DHT22;2832;50.864;12.186;2024-03-08T13:39:55;9.90;97.00
5621;DHT22;2832;50.864;12.186;2024-03-08T13:42:26;9.90;96.40
5621;DHT22;2832;50.864;12.186;2024-03-08T13:44:55;9.90;96.40
5621;DHT22;2832;50.864;12.186;2024-03-08T13:47:27;9.90;96.50
5621;DHT22;2832;50.864;12.186;2024-03-08T13:50:00;9.90;96.70
5621;DHT22;2832;50.864;12.186;2024-03-08T13:52:33;10.00;96.50
5621;DHT22;2832;50.864;12.186;2024-03-08T13:55:07;10.00;96.10
5621;DHT22;2832;50.864;12.186;2024-03-08T13:57:55;10.10;96.30
5621;DHT22;2832;50.864;12.186;2024-03-08T14:00:34;10.10;96.30
5621;DHT22;2832;50.864;12.186;2024-03-08T14:03:08;10.20;96.20
5621;DHT22;2832;50.864;12.186;2024-03-08T14:05:52;10.20;96.40
5621;DHT22;2832;50.864;12.186;2024-03-08T14:08:27;10.30;96.50
5621;DHT22;2832;50.864;12.186;2024-03-08T14:10:57;10.30;96.40
5621;DHT22;2832;50.864;12.186;2024-03-08T14:13:25;10.40;96.80
5621;DHT22;2832;50.864;12.186;2024-03-08T14:15:57;10.40;96.40
5621;DHT22;2832;50.864;12.186;2024-03-08T14:18:28;10.40;96.20
5621;DHT22;2832;50.864;12.186;2024-03-08T14:21:05;10.40;96.10
5621;DHT22;2832;50.864;12.186;2024-03-08T14:23:36;10.40;96.10
5621;DHT22;2832;50.864;12.186;2024-03-08T14:26:04;10.40;96.20
5621;DHT22;2832;50.864;12.186;2024-03-08T14:28:33;10.40;96.30
5621;DHT22;2832;50.864;12.186;2024-03-08T14:31:01;10.40;96.30
5621;DHT22;2832;50.864;12.186;2024-03-08T14:33:39;10.40;96.20
5621;DHT22;2832;50.864;12.186;2024-03-08T14:36:09;10.50;96.30
5621;DHT22;2832;50.864;12.186;2024-03-08T14:38:42;10.60;96.50
5621;DHT22;2832;50.864;12.186;2024-03-08T14:41:17;10.70;96.50
5621;DHT22;2832;50.864;12.186;2024-03-08T14:43:55;10.80;96.50
5621;DHT22;2832;50.864;12.186;2024-03-08T14:46:29;10.90;96.40
5621;DHT22;2832;50.864;12.186;2024-03-08T14:49:04;10.90;96.30
5621;DHT22;2832;50.864;12.186;2024-03-08T14:51:33;11.00;96.30
5621;DHT22;2832;50.864;12.186;2024-03-08T14:54:01;11.00;96.20
5621;DHT22;2832;50.864;12.186;2024-03-08T14:56:34;11.00;96.30
5621;DHT22;2832;50.864;12.186;2024-03-08T14:59:04;11.00;96.20
5621;DHT22;2832;50.864;12.186;2024-03-08T15:01:32;11.00;96.30
5621;DHT22;2832;50.864;12.186;2024-03-08T15:04:04;11.00;96.40
5621;DHT22;2832;50.864;12.186;2024-03-08T15:06:36;11.10;96.40
5621;DHT22;2832;50.864;12.186;2024-03-08T15:09:05;11.20;96.40
5621;DHT22;2832;50.864;12.186;2024-03-08T15:11:49;11.20;96.30
5621;DHT22;2832;50.864;12.186;2024-03-08T15:14:17;11.20;96.30
5621;DHT22;2832;50.864;12.186;2024-03-08T15:16:46;11.20;96.30
5621;DHT22;2832;50.864;12.186;2024-03-08T15:19:18;11.20;96.30
5621;DHT22;2832;50.864;12.186;2024-03-08T15:21:50;11.20;96.30
5621;DHT22;2832;50.864;12.186;2024-03-08T15:24:25;11.20;96.40
5621;DHT22;2832;50.864;12.186;2024-03-08T15:26:52;11.20;96.40
5621;DHT22;2832;50.864;12.186;2024-03-08T15:29:21;11.20;96.50
5621;DHT22;2832;50.864;12.186;2024-03-08T15:31:52;11.20;96.50
5621;DHT22;2832;50.864;12.186;2024-03-08T15:34:22;11.20;96.40
5621;DHT22;2832;50.864;12.186;2024-03-08T15:36:52;11.20;96.50
5621;DHT22;2832;50.864;12.186;2024-03-08T15:39:28;11.20;96.50
5621;DHT22;2832;50.864;12.186;2024-03-08T15:42:00;11.20;96.50
5621;DHT22;2832;50.864;12.186;2024-03-08T15:44:30;11.20;96.50
5621;DHT22;2832;50.864;12.186;2024-03-08T15:46:58;11.20;96.50
5621;DHT22;2832;50.864;12.186;2024-03-08T15:49:28;11.20;96.60
5621;DHT22;2832;50.864;12.186;2024-03-08T15:51:59;11.20;96.60
5621;DHT22;2832;50.864;12.186;2024-03-08T15:54:30;11.20;96.60
5621;DHT22;2832;50.864;12.186;2024-03-08T15:56:58;11.30;96.60
5621;DHT22;2832;50.864;12.186;2024-03-08T15:59:28;11.30;96.70
5621;DHT22;2832;50.864;12.186;2024-03-08T16:02:05;11.30;96.60
5621;DHT22;2832;50.864;12.186;2024-03-08T16:04:53;11.40;96.60
5621;DHT22;2832;50.864;12.186;2024-03-08T16:07:26;11.40;96.60
5621;DHT22;2832;50.864;12.186;2024-03-08T16:09:54;11.30;96.40
5621;DHT22;2832;50.864;12.186;2024-03-08T16:12:26;11.40;96.50
5621;DHT22;2832;50.864;12.186;2024-03-08T16:14:55;11.30;96.50
5621;DHT22;2832;50.864;12.186;2024-03-08T16:17:26;11.40;96.70
5621;DHT22;2832;50.864;12.186;2024-03-08T16:19:56;11.30;96.60
5621;DHT22;2832;50.864;12.186;2024-03-08T16:22:25;11.30;96.60